Time;durP1;ratioP1;P1;durP2;ratioP2;P2;SDS_P1;SDS_P2;PMS_P1;PMS_P2;Temp;Humidity;BMP_temperature;BMP_pressure;BME280_temperature;BME280_humidity;BME280_pressure;Samples;Min_cycle;Max_cycle;Signal;HPM_P1;HPM_P2
2023/01/01 10:11:29;;;;;;;5.13;3.50;;;;;;;15.01;69.62;99350.97;5151371;27;20557;-86
2023/01/01 10:13:59;;;;;;;3.90;3.33;;;;;;;15.64;68.15;99359.69;5133358;27;40192;-86
2023/01/01 10:16:33;;;;;;;4.53;3.03;;;;;;;16.24;65.11;99353.31;5132759;27;41072;-87
2023/01/01 10:19:20;;;;;;;7.13;3.27;;;;;;;16.75;61.62;99362.59;5132387;27;41878;-83
2023/01/01 10:21:51;;;;;;;6.57;3.43;;;;;;;17.65;58.83;99394.56;5132787;27;42036;-85
2023/01/01 10:24:33;;;;;;;4.27;2.77;;;;;;;18.48;55.82;99406.19;5132167;27;41341;-87
2023/01/01 10:27:04;;;;;;;6.20;2.60;;;;;;;19.06;54.62;99422.59;5132976;27;41535;-86
2023/01/01 10:29:40;;;;;;;3.83;2.73;;;;;;;19.55;52.57;99413.72;5145115;27;43556;-86
2023/01/01 10:32:18;;;;;;;4.50;2.63;;;;;;;20.11;51.46;99437.25;5146101;27;42030;-85
2023/01/01 10:34:46;;;;;;;3.47;2.57;;;;;;;20.23;51.26;99413.75;5126218;27;38551;-85
2023/01/01 10:37:15;;;;;;;4.73;2.73;;;;;;;20.67;49.99;99428.41;5147090;27;42735;-86
2023/01/01 10:39:44;;;;;;;3.93;2.50;;;;;;;21.16;49.24;99409.22;5146914;27;43584;-87
2023/01/01 10:42:16;;;;;;;4.00;2.60;;;;;;;21.59;47.18;99426.59;5131675;27;41058;-85
2023/01/01 10:44:44;;;;;;;2.57;2.37;;;;;;;22.03;46.53;99429.41;5125847;27;40323;-89
2023/01/01 10:47:24;;;;;;;5.03;2.90;;;;;;;22.40;45.50;99421.13;5126891;27;42442;-87
2023/01/01 10:49:57;;;;;;;4.67;2.77;;;;;;;22.82;44.76;99429.38;5130313;27;43435;-87
2023/01/01 10:52:29;;;;;;;4.83;2.30;;;;;;;23.11;43.27;99410.97;5130829;27;41121;-87
2023/01/01 10:54:57;;;;;;;4.23;2.40;;;;;;;23.27;42.20;99384.00;5129478;27;41060;-89
2023/01/01 10:57:41;;;;;;;3.33;2.50;;;;;;;23.72;42.44;99430.63;5131202;27;44059;-87
2023/01/01 11:00:16;;;;;;;3.97;2.27;;;;;;;23.68;41.89;99419.31;5124744;27;44173;-85
2023/01/01 11:02:44;;;;;;;4.57;2.33;;;;;;;23.51;41.73;99422.97;5130960;27;42800;-87
2023/01/01 11:05:18;;;;;;;2.47;2.27;;;;;;;23.25;42.17;99418.44;5129921;27;39489;-88
2023/01/01 11:07:46;;;;;;;2.57;2.10;;;;;;;22.96;41.38;99409.88;5148662;27;41029;-87
2023/01/01 11:10:18;;;;;;;3.17;2.17;;;;;;;22.75;41.34;99412.94;5129924;27;41869;-85
2023/01/01 11:12:49;;;;;;;7.13;2.60;;;;;;;22.32;42.30;99396.78;5144527;27;42792;-88
2023/01/01 11:15:23;;;;;;;4.47;2.50;;;;;;;21.95;43.13;99394.25;5130062;27;39905;-85
2023/01/01 11:17:50;;;;;;;3.93;2.00;;;;;;;21.73;44.06;99396.41;5131528;27;41006;-88
2023/01/01 11:20:20;;;;;;;4.57;2.30;;;;;;;21.61;44.19;99375.25;5147233;27;42712;-86
2023/01/01 11:22:51;;;;;;;2.80;2.00;;;;;;;21.84;43.07;99409.69;5117939;27;41350;-83
2023/01/01 11:25:22;;;;;;;3.57;1.73;;;;;;;21.71;43.35;99382.25;5118046;27;39350;-88
2023/01/01 11:27:52;;;;;;;3.63;2.10;;;;;;;21.52;43.95;99395.84;5118006;27;41161;-83
2023/01/01 11:30:23;;;;;;;5.37;2.90;;;;;;;21.14;44.33;99368.09;5110447;27;42991;-86
2023/01/01 11:32:53;;;;;;;2.67;2.07;;;;;;;21.13;44.84;99390.69;5117700;27;42115;-86
2023/01/01 11:35:24;;;;;;;2.50;1.90;;;;;;;20.94;45.06;99377.28;5119562;27;40147;-86
2023/01/01 11:37:53;;;;;;;2.93;1.90;;;;;;;21.03;44.66;99376.38;5119385;27;41584;-86
2023/01/01 11:40:24;;;;;;;4.53;1.93;;;;;;;20.97;44.04;99376.16;5117788;27;41595;-86
2023/01/01 11:42:57;;;;;;;2.63;2.03;;;;;;;21.00;44.57;99375.88;5118739;27;41373;-86
2023/01/01 11:45:29;;;;;;;4.50;2.43;;;;;;;20.92;44.44;99370.34;5117802;27;40463;-86
2023/01/01 11:48:00;;;;;;;4.07;1.80;;;;;;;20.87;45.14;99338.50;5117562;27;40469;-87
2023/01/01 11:50:32;;;;;;;3.07;1.80;;;;;;;20.82;44.51;99351.56;5134657;27;43282;-87
2023/01/01 11:53:18;;;;;;;3.47;2.03;;;;;;;20.71;44.44;99338.28;5117990;27;42292;-86
2023/01/01 11:55:50;;;;;;;4.43;1.80;;;;;;;20.60;44.80;99346.56;5117695;27;39578;-85
2023/01/01 11:58:27;;;;;;;2.70;2.03;;;;;;;20.78;45.15;99359.06;5118021;27;40786;-86
2023/01/01 12:00:59;;;;;;;4.40;2.30;;;;;;;20.78;45.72;99342.94;5117225;27;41767;-86
2023/01/01 12:03:32;;;;;;;4.90;2.00;;;;;;;20.80;45.98;99337.41;5117568;27;44620;-86
2023/01/01 12:06:06;;;;;;;2.83;2.00;;;;;;;20.82;44.98;99335.41;5117725;27;40011;-88
2023/01/01 12:08:38;;;;;;;3.70;2.00;;;;;;;20.66;45.04;99341.41;5122450;27;40907;-84
2023/01/01 12:11:17;;;;;;;4.60;2.10;;;;;;;20.61;45.05;99338.34;5154818;27;43525;-82
2023/01/01 12:13:51;;;;;;;4.50;2.50;;;;;;;20.51;44.96;99326.78;5137009;27;40904;-83
2023/01/01 12:16:23;;;;;;;3.63;1.80;;;;;;;20.70;44.74;99334.75;5136954;27;39184;-84
2023/01/01 12:19:02;;;;;;;4.23;2.17;;;;;;;20.93;44.56;99310.97;5137372;27;40654;-83
2023/01/01 12:21:31;;;;;;;4.33;2.30;;;;;;;21.34;43.13;99306.06;5152212;27;42935;-83
2023/01/01 12:23:59;;;;;;;5.37;2.43;;;;;;;21.66;42.50;99330.63;5144441;27;42347;-86
2023/01/01 12:26:34;;;;;;;4.97;2.07;;;;;;;21.49;42.27;99336.88;5119035;27;41382;-87
2023/01/01 12:29:27;;;;;;;4.57;2.13;;;;;;;21.02;43.73;99304.69;5118781;27;40943;-86
2023/01/01 12:32:05;;;;;;;3.73;2.00;;;;;;;20.70;44.00;99332.06;5118677;27;41994;-86
2023/01/01 12:34:38;;;;;;;3.27;2.00;;;;;;;20.26;45.06;99314.78;5118325;27;42412;-86
2023/01/01 12:37:17;;;;;;;2.37;2.00;;;;;;;20.00;45.92;99316.41;5117202;27;40504;-87
2023/01/01 12:40:29;;;;;;;4.60;2.20;;;;;;;19.65;45.97;99317.84;5116676;27;40922;-85
2023/01/01 12:43:02;;;;;;;6.10;2.27;;;;;;;19.44;46.35;99316.25;5116993;27;41717;-85
2023/01/01 12:45:49;;;;;;;3.93;3.20;;;;;;;19.23;47.24;99294.91;5134146;27;41313;-86
2023/01/01 12:48:34;;;;;;;4.03;2.00;;;;;;;19.05;47.39;99285.81;5116522;27;39157;-86
2023/01/01 12:51:11;;;;;;;4.03;2.10;;;;;;;18.86;47.90;99263.34;5116239;27;42130;-87
2023/01/01 12:53:47;;;;;;;2.93;2.30;;;;;;;18.94;47.90;99284.94;5133856;27;44635;-85
2023/01/01 12:56:23;;;;;;;2.93;1.90;;;;;;;18.98;48.24;99286.38;5130724;27;42372;-85
2023/01/01 12:58:56;;;;;;;4.53;2.13;;;;;;;18.99;48.35;99293.44;5116497;27;38745;-86
2023/01/01 13:01:28;;;;;;;3.27;2.27;;;;;;;18.96;48.23;99293.72;5116998;27;42188;-84
2023/01/01 13:03:59;;;;;;;4.40;2.37;;;;;;;18.90;48.31;99286.22;5130697;27;42979;-88
2023/01/01 13:06:34;;;;;;;3.80;2.07;;;;;;;18.82;48.73;99286.06;5116453;27;41584;-86
2023/01/01 13:09:07;;;;;;;4.60;1.97;;;;;;;18.72;48.82;99293.22;5116253;27;40195;-86
2023/01/01 13:11:35;;;;;;;3.97;1.97;;;;;;;18.63;48.95;99292.22;5116471;27;41053;-85
2023/01/01 13:14:03;;;;;;;5.00;2.17;;;;;;;18.46;49.11;99267.84;5116328;27;41856;-86
2023/01/01 13:16:38;;;;;;;2.50;1.80;;;;;;;18.45;49.99;99276.88;5116284;27;41177;-86
2023/01/01 13:19:06;;;;;;;6.47;2.30;;;;;;;18.39;49.58;99282.78;5130724;27;40084;-85
2023/01/01 13:21:37;;;;;;;5.00;2.20;;;;;;;18.33;49.75;99284.16;5133460;27;40737;-85
2023/01/01 13:24:18;;;;;;;6.70;2.47;;;;;;;18.25;49.62;99292.03;5116371;27;41671;-86
2023/01/01 13:26:47;;;;;;;4.67;2.23;;;;;;;18.09;49.80;99268.38;5116016;27;40808;-86
2023/01/01 13:29:42;;;;;;;5.17;2.93;;;;;;;18.10;50.08;99288.00;5115958;27;41884;-85
2023/01/01 13:32:13;;;;;;;5.30;2.50;;;;;;;17.94;49.55;99267.03;5115699;27;40449;-85
2023/01/01 13:34:58;;;;;;;5.80;2.57;;;;;;;17.91;49.92;99276.19;5115764;27;43612;-86
2023/01/01 13:37:42;;;;;;;3.83;2.03;;;;;;;17.95;50.43;99276.75;5116346;27;42629;-84
2023/01/01 13:40:30;;;;;;;3.40;2.17;;;;;;;17.87;50.74;99276.56;5131007;27;41045;-86
2023/01/01 13:43:06;;;;;;;3.27;2.03;;;;;;;17.73;50.03;99252.78;5115808;27;42353;-86
2023/01/01 13:45:38;;;;;;;2.73;1.90;;;;;;;17.68;50.60;99255.03;5115363;27;42818;-85
2023/01/01 13:48:24;;;;;;;2.80;1.83;;;;;;;17.60;50.90;99243.09;5115584;27;44026;-85
2023/01/01 13:51:03;;;;;;;4.30;2.10;;;;;;;17.69;51.16;99251.34;5115541;27;40229;-85
2023/01/01 13:53:48;;;;;;;4.97;2.40;;;;;;;17.67;51.59;99250.66;5115422;27;41541;-85
2023/01/01 13:56:30;;;;;;;3.63;2.30;;;;;;;17.59;51.13;99249.44;5129974;27;42649;-85
2023/01/01 13:59:45;;;;;;;3.60;1.93;;;;;;;17.59;51.45;99267.31;5115213;27;42477;-85
2023/01/01 14:02:22;;;;;;;5.03;2.00;;;;;;;17.49;51.54;99251.19;5080559;27;38854;-85
2023/01/01 14:04:55;;;;;;;6.03;2.40;;;;;;;17.36;51.63;99255.88;5132136;27;42523;-84
2023/01/01 14:07:40;;;;;;;7.40;2.37;;;;;;;17.33;51.71;99261.50;5115707;27;41601;-85
2023/01/01 14:10:17;;;;;;;7.43;2.40;;;;;;;17.32;52.19;99259.78;5114734;27;43387;-86
2023/01/01 14:12:45;;;;;;;3.23;2.37;;;;;;;17.33;52.30;99266.00;5115483;27;39146;-85
2023/01/01 14:15:23;;;;;;;6.33;2.30;;;;;;;17.26;52.36;99265.66;5115831;27;42513;-85
2023/01/01 14:17:51;;;;;;;4.83;2.53;;;;;;;17.25;52.48;99269.31;5115360;27;41948;-85
2023/01/01 14:20:23;;;;;;;4.00;2.53;;;;;;;16.88;52.47;99223.34;5132426;27;42326;-85
2023/01/01 14:22:52;;;;;;;7.53;2.13;;;;;;;17.15;52.79;99276.41;5115147;27;38873;-84
2023/01/01 14:25:26;;;;;;;3.63;2.07;;;;;;;17.08;52.78;99262.69;5115057;27;41577;-85
2023/01/01 14:27:56;;;;;;;6.37;2.50;;;;;;;17.06;53.10;99263.81;5115097;27;43703;-86
2023/01/01 14:30:25;;;;;;;3.70;2.07;;;;;;;17.13;53.31;99279.22;5115235;27;41192;-85
2023/01/01 14:32:57;;;;;;;3.87;1.90;;;;;;;17.02;53.41;99263.19;5132201;27;38867;-84
2023/01/01 14:35:28;;;;;;;2.73;2.10;;;;;;;16.98;53.60;99258.22;5115155;27;42029;-84
2023/01/01 14:37:57;;;;;;;2.80;2.10;;;;;;;16.92;53.76;99256.06;5115289;27;43248;-84
2023/01/01 14:40:27;;;;;;;3.90;1.90;;;;;;;16.79;54.02;99242.84;5115250;27;42160;-84
2023/01/01 14:43:00;;;;;;;3.10;2.20;;;;;;;16.93;54.46;99279.16;5115583;27;39583;-86
2023/01/01 14:45:28;;;;;;;3.23;2.30;;;;;;;16.54;54.48;99214.53;5115031;27;42126;-84
2023/01/01 14:47:57;;;;;;;6.17;2.27;;;;;;;16.89;54.65;99278.56;5132077;27;43692;-85
2023/01/01 14:50:29;;;;;;;7.20;3.07;;;;;;;16.81;54.94;99271.16;5114763;27;41523;-85
2023/01/01 14:53:04;;;;;;;3.80;2.40;;;;;;;16.53;55.00;99234.22;5114847;27;39931;-85
2023/01/01 14:55:37;;;;;;;6.80;1.93;;;;;;;16.65;55.03;99265.34;5131893;27;42087;-84
2023/01/01 14:58:06;;;;;;;4.60;2.70;;;;;;;16.71;55.20;99277.38;5135604;27;43721;-86
2023/01/01 15:00:34;;;;;;;4.63;2.50;;;;;;;16.47;55.58;99256.94;5118497;27;43717;-85
2023/01/01 15:03:12;;;;;;;4.20;2.53;;;;;;;16.57;55.83;99273.09;5118152;27;39556;-85
2023/01/01 15:05:44;;;;;;;6.63;2.43;;;;;;;16.48;55.87;99271.16;5118514;27;42020;-85
2023/01/01 15:08:21;;;;;;;3.60;2.60;;;;;;;16.41;56.21;99272.66;5118264;27;41776;-85
2023/01/01 15:10:49;;;;;;;4.00;2.50;;;;;;;16.43;56.70;99268.88;5117303;27;42437;-85
2023/01/01 15:13:19;;;;;;;4.90;2.80;;;;;;;16.40;56.69;99265.59;5118040;27;40402;-85
2023/01/01 15:15:49;;;;;;;4.70;2.80;;;;;;;16.30;56.84;99260.16;5117934;27;42025;-85
2023/01/01 15:18:36;;;;;;;3.47;2.70;;;;;;;16.28;57.09;99264.75;5117812;27;42906;-85
2023/01/01 15:21:10;;;;;;;3.07;2.23;;;;;;;16.11;57.05;99239.34;5118022;27;42891;-85
2023/01/01 15:23:38;;;;;;;4.33;2.70;;;;;;;16.08;57.34;99250.28;5117952;27;39191;-86
2023/01/01 15:26:14;;;;;;;5.07;3.73;;;;;;;16.13;57.50;99253.44;5117361;27;42098;-85
2023/01/01 15:28:42;;;;;;;4.83;3.17;;;;;;;16.00;57.42;99235.84;5118019;27;44248;-84
2023/01/01 15:31:10;;;;;;;6.57;3.80;;;;;;;16.01;58.01;99250.88;5117573;27;41791;-84
2023/01/01 15:33:44;;;;;;;7.63;4.53;;;;;;;15.90;58.34;99241.06;5117647;27;41695;-86
2023/01/01 15:36:15;;;;;;;6.83;4.77;;;;;;;15.80;58.36;99234.72;5117463;27;41516;-84
2023/01/01 15:38:48;;;;;;;8.37;5.20;;;;;;;15.45;58.77;99186.72;5131888;27;42822;-84
2023/01/01 15:41:40;;;;;;;6.80;4.93;;;;;;;15.78;58.69;99236.66;5117699;27;41033;-84
2023/01/01 15:44:09;;;;;;;6.97;4.80;;;;;;;15.73;58.64;99237.00;5117320;27;40072;-85
2023/01/01 15:46:36;;;;;;;7.73;5.60;;;;;;;15.61;58.56;99235.28;5134446;27;41610;-85
2023/01/01 15:49:24;;;;;;;8.30;5.43;;;;;;;15.55;58.95;99238.44;5117410;27;41906;-85
2023/01/01 15:51:56;;;;;;;7.23;5.53;;;;;;;15.24;59.10;99194.53;5132955;27;41946;-84
2023/01/01 15:54:25;;;;;;;10.27;6.73;;;;;;;15.35;59.05;99225.72;5117488;27;40952;-85
2023/01/01 15:56:53;;;;;;;9.53;6.40;;;;;;;15.14;59.20;99198.88;5117120;27;43154;-85
2023/01/01 15:59:28;;;;;;;9.53;6.73;;;;;;;15.46;59.60;99253.28;5117322;27;42948;-86
2023/01/01 16:02:13;;;;;;;12.37;7.67;;;;;;;15.35;59.82;99241.72;5117114;27;41098;-84
2023/01/01 16:04:45;;;;;;;10.27;7.73;;;;;;;14.99;59.76;99190.19;5117070;27;38722;-85
2023/01/01 16:07:22;;;;;;;8.57;7.07;;;;;;;15.28;60.11;99235.19;5117060;27;41367;-85
2023/01/01 16:09:50;;;;;;;13.90;8.67;;;;;;;14.98;59.83;99198.31;5117217;27;42215;-84
2023/01/01 16:12:19;;;;;;;11.97;8.03;;;;;;;15.17;59.90;99229.81;5116987;27;43075;-84
2023/01/01 16:14:47;;;;;;;12.07;8.03;;;;;;;15.13;60.13;99229.16;5134228;27;39250;-84
2023/01/01 16:17:17;;;;;;;13.90;7.90;;;;;;;15.17;60.43;99236.00;5116543;27;40930;-84
2023/01/01 16:19:45;;;;;;;10.50;7.40;;;;;;;15.14;60.38;99236.22;5117540;27;43652;-83
2023/01/01 16:22:19;;;;;;;10.43;6.93;;;;;;;15.03;60.54;99214.81;5117208;27;41690;-84
2023/01/01 16:24:47;;;;;;;8.83;6.47;;;;;;;15.02;60.78;99218.47;5134401;27;39080;-83
2023/01/01 16:27:15;;;;;;;7.77;5.57;;;;;;;14.98;60.74;99219.66;5116803;27;40869;-85
2023/01/01 16:29:43;;;;;;;7.50;5.40;;;;;;;14.95;60.85;99210.09;5117043;27;42957;-84
2023/01/01 16:32:17;;;;;;;6.13;4.87;;;;;;;15.01;60.89;99227.41;5134315;27;42304;-86
2023/01/01 16:34:44;;;;;;;5.60;5.00;;;;;;;14.97;61.00;99217.94;5117142;27;39313;-86
2023/01/01 16:37:12;;;;;;;6.60;4.50;;;;;;;14.53;61.25;99165.25;5116604;27;42218;-85
2023/01/01 16:39:41;;;;;;;6.40;4.83;;;;;;;14.56;61.81;99186.38;5135227;27;42728;-86
2023/01/01 16:42:12;;;;;;;8.73;4.73;;;;;;;14.56;61.82;99208.53;5116785;27;40982;-84
2023/01/01 16:44:41;;;;;;;8.50;4.73;;;;;;;14.45;62.08;99205.81;5134128;27;39853;-84
2023/01/01 16:47:09;;;;;;;8.37;5.67;;;;;;;14.03;62.31;99161.75;5116138;27;43573;-87
2023/01/01 16:49:37;;;;;;;6.97;5.23;;;;;;;14.18;62.63;99202.44;5116555;27;43337;-86
2023/01/01 16:52:05;;;;;;;8.73;5.33;;;;;;;14.07;62.85;99200.53;5116665;27;41211;-86
2023/01/01 16:54:33;;;;;;;6.83;5.03;;;;;;;14.01;62.92;99215.13;5116744;27;40909;-86
2023/01/01 16:57:05;;;;;;;9.97;6.30;;;;;;;14.06;63.46;99237.94;5116779;27;40859;-86
2023/01/01 16:59:35;;;;;;;8.10;5.63;;;;;;;13.73;63.60;99187.88;5116783;27;42114;-85
2023/01/01 17:02:03;;;;;;;7.63;5.77;;;;;;;13.45;63.91;99165.03;5116406;27;41166;-85
2023/01/01 17:04:31;;;;;;;7.03;6.20;;;;;;;13.79;64.25;99216.75;5116313;27;39214;-84
2023/01/01 17:06:59;;;;;;;5.97;5.30;;;;;;;13.50;63.90;99178.84;5116273;27;40401;-87
2023/01/01 17:09:32;;;;;;;9.93;6.67;;;;;;;13.70;64.02;99215.59;5116391;27;41795;-85
2023/01/01 17:11:59;;;;;;;8.97;6.40;;;;;;;13.76;64.24;99228.47;5116387;27;41153;-86
2023/01/01 17:14:29;;;;;;;9.23;6.50;;;;;;;13.28;64.21;99147.56;5116635;27;40347;-86
2023/01/01 17:16:57;;;;;;;10.53;7.33;;;;;;;13.71;64.85;99219.09;5115632;27;41268;-84
2023/01/01 17:19:25;;;;;;;8.70;6.33;;;;;;;13.33;64.81;99163.22;5115584;27;42235;-86
2023/01/01 17:21:52;;;;;;;9.37;7.10;;;;;;;13.61;64.92;99216.22;5116070;27;41636;-86
2023/01/01 17:24:21;;;;;;;8.43;5.83;;;;;;;13.44;64.97;99189.94;5116506;27;38975;-85
2023/01/01 17:26:52;;;;;;;9.43;6.67;;;;;;;13.63;64.94;99217.81;5116380;27;40446;-85
2023/01/01 17:29:20;;;;;;;6.17;4.80;;;;;;;13.50;65.16;99194.81;5116144;27;41796;-84
2023/01/01 17:31:49;;;;;;;8.50;5.80;;;;;;;13.57;64.95;99212.94;5133035;27;43023;-87
